Time;durP1;ratioP1;P1;durP2;ratioP2;P2;SDS_P1;SDS_P2;PMS_P1;PMS_P2;Temp;Humidity;BMP_temperature;BMP_pressure;BME280_temperature;BME280_humidity;BME280_pressure;Samples;Min_cycle;Max_cycle;Signal;HPM_P1;HPM_P2
2021/05/14 00:00:55;;;;;;;0.17;0.17;;;9.70;99.90;;;;;;5081951;28;20060;-88
2021/05/14 00:03:21;;;;;;;0.10;0.10;;;9.70;99.90;;;;;;5087016;28;20402;-87
2021/05/14 00:05:56;;;;;;;0.17;0.17;;;9.70;99.90;;;;;;5067882;28;20032;-87
2021/05/14 00:08:26;;;;;;;0.10;0.10;;;9.70;99.90;;;;;;5056608;28;20020;-88
2021/05/14 00:10:53;;;;;;;0.30;0.30;;;9.60;99.90;;;;;;5080373;28;20051;-88
2021/05/14 00:13:19;;;;;;;;;;;9.50;99.90;;;;;;5074475;28;20056;-88
2021/05/14 00:15:45;;;;;;;0.10;0.10;;;9.50;99.90;;;;;;5085923;28;19912;-88
2021/05/14 00:18:14;;;;;;;0.10;0.10;;;9.40;99.90;;;;;;5075254;28;20042;-88
2021/05/14 00:20:46;;;;;;;0.10;0.10;;;9.30;99.90;;;;;;5072869;28;20035;-88
2021/05/14 00:23:12;;;;;;;0.20;0.20;;;9.20;99.90;;;;;;5075386;28;20017;-88
2021/05/14 00:25:38;;;;;;;1.85;1.00;;;9.10;99.90;;;;;;5078188;28;20039;-89
2021/05/14 00:28:04;;;;;;;0.10;0.10;;;9.00;99.90;;;;;;5076727;28;20110;-88
2021/05/14 00:30:30;;;;;;;0.05;0.05;;;9.10;99.90;;;;;;5074381;28;20059;-88
2021/05/14 00:32:56;;;;;;;0.10;0.10;;;9.00;99.90;;;;;;5071656;28;20024;-87
2021/05/14 00:35:33;;;;;;;1.45;0.63;;;8.90;99.90;;;;;;5084890;28;20117;-88
2021/05/14 00:38:04;;;;;;;0.68;0.68;;;8.80;99.90;;;;;;5074883;28;20020;-88
2021/05/14 00:40:29;;;;;;;32.05;1.30;;;8.80;99.90;;;;;;5070258;28;20056;-89
2021/05/14 00:42:55;;;;;;;0.68;0.68;;;8.80;99.90;;;;;;5081123;28;20052;-88
2021/05/14 00:45:21;;;;;;;0.25;0.25;;;8.90;99.90;;;;;;5067606;28;20492;-88
2021/05/14 00:47:47;;;;;;;0.43;0.43;;;8.90;99.90;;;;;;5076473;28;20027;-88
2021/05/14 00:50:13;;;;;;;0.00;0.00;;;9.00;99.90;;;;;;5076607;28;20040;-88
2021/05/14 00:52:40;;;;;;;0.10;0.10;;;9.00;99.90;;;;;;5079945;28;20089;-87
2021/05/14 00:55:06;;;;;;;0.10;0.10;;;9.10;99.90;;;;;;5073634;28;20032;-87
2021/05/14 00:57:33;;;;;;;0.10;0.10;;;9.10;99.90;;;;;;5087415;28;20031;-87
2021/05/14 00:59:59;;;;;;;;;;;9.10;99.90;;;;;;5083366;28;20036;-87
2021/05/14 01:02:25;;;;;;;0.10;0.10;;;9.20;99.90;;;;;;5065378;28;20410;-87
2021/05/14 01:04:51;;;;;;;0.20;0.20;;;9.10;99.90;;;;;;5082521;28;20266;-87
2021/05/14 01:07:16;;;;;;;0.17;0.10;;;9.10;99.90;;;;;;5080196;28;20028;-86
2021/05/14 01:09:43;;;;;;;0.10;0.10;;;8.90;99.90;;;;;;5081498;28;20028;-87
2021/05/14 01:12:10;;;;;;;0.00;0.00;;;8.90;99.90;;;;;;5075519;28;20462;-88
2021/05/14 01:14:36;;;;;;;0.00;0.00;;;8.90;99.90;;;;;;5084677;28;20488;-89
2021/05/14 01:17:02;;;;;;;0.75;0.52;;;8.80;99.90;;;;;;5075638;28;20036;-88
2021/05/14 01:19:28;;;;;;;0.10;0.10;;;8.70;99.90;;;;;;5079817;28;20029;-88
2021/05/14 01:21:54;;;;;;;0.10;0.10;;;8.60;99.90;;;;;;5087771;28;20020;-89
2021/05/14 01:24:20;;;;;;;0.10;0.10;;;8.50;99.90;;;;;;5087034;28;20024;-88
2021/05/14 01:26:46;;;;;;;0.10;0.10;;;8.30;99.90;;;;;;5081938;28;20012;-87
2021/05/14 01:29:12;;;;;;;0.10;0.10;;;8.30;99.90;;;;;;5079263;28;20030;-88
2021/05/14 01:31:39;;;;;;;0.10;0.10;;;8.30;99.90;;;;;;5079529;28;20415;-88
2021/05/14 01:34:07;;;;;;;2.42;0.30;;;8.30;99.90;;;;;;5091231;28;20043;-87
2021/05/14 01:36:42;;;;;;;1.08;1.00;;;8.30;99.90;;;;;;5066404;28;20064;-88
2021/05/14 01:39:24;;;;;;;0.00;0.00;;;8.30;99.90;;;;;;5071903;28;20089;-88
2021/05/14 01:41:51;;;;;;;0.10;0.10;;;8.20;99.90;;;;;;5083335;28;20028;-88
2021/05/14 01:44:17;;;;;;;0.75;0.75;;;8.50;99.90;;;;;;5071318;28;20053;-87
2021/05/14 01:46:43;;;;;;;0.40;0.40;;;8.70;99.90;;;;;;5077907;28;20107;-87
2021/05/14 01:49:09;;;;;;;1.75;1.10;;;8.80;99.90;;;;;;5078087;28;20404;-87
2021/05/14 01:51:35;;;;;;;0.10;0.10;;;8.80;99.90;;;;;;5083077;28;20109;-87
2021/05/14 01:54:01;;;;;;;0.35;0.32;;;8.80;99.90;;;;;;5091713;28;20484;-87
2021/05/14 01:56:27;;;;;;;0.80;0.70;;;8.80;99.90;;;;;;5081558;28;20043;-87
2021/05/14 01:58:52;;;;;;;0.25;0.25;;;8.80;99.90;;;;;;5078839;28;20400;-88
2021/05/14 02:01:19;;;;;;;0.03;0.03;;;8.80;99.90;;;;;;5080249;28;20036;-88
2021/05/14 02:03:45;;;;;;;0.10;0.10;;;8.80;99.90;;;;;;5075612;28;20031;-88
2021/05/14 02:06:11;;;;;;;0.10;0.10;;;8.80;99.90;;;;;;5076525;28;20028;-88
2021/05/14 02:08:37;;;;;;;7.27;1.97;;;8.80;99.90;;;;;;5091696;28;20458;-89
2021/05/14 02:11:04;;;;;;;0.13;0.13;;;8.80;99.90;;;;;;5081362;28;20028;-88
2021/05/14 02:13:30;;;;;;;0.10;0.10;;;8.80;99.90;;;;;;5091075;28;20532;-88
2021/05/14 02:15:56;;;;;;;0.10;0.10;;;8.70;99.90;;;;;;5078691;28;20036;-87
2021/05/14 02:18:22;;;;;;;0.10;0.10;;;8.70;99.90;;;;;;5082648;28;20082;-87
2021/05/14 02:20:48;;;;;;;0.40;0.40;;;8.70;99.90;;;;;;5070811;28;20033;-87
2021/05/14 02:23:14;;;;;;;2.25;0.50;;;8.80;99.90;;;;;;5071442;28;20040;-87
2021/05/14 02:25:39;;;;;;;0.10;0.10;;;8.80;99.90;;;;;;5079792;28;20042;-86
2021/05/14 02:28:07;;;;;;;0.50;0.47;;;8.80;99.90;;;;;;5074048;28;20048;-87
2021/05/14 02:30:33;;;;;;;0.85;0.68;;;8.60;99.90;;;;;;5072134;28;20035;-86
2021/05/14 02:32:59;;;;;;;0.10;0.10;;;8.60;99.90;;;;;;5080693;28;20072;-87
2021/05/14 02:35:25;;;;;;;0.17;0.17;;;8.50;99.90;;;;;;5079008;28;20082;-87
2021/05/14 02:37:51;;;;;;;0.20;0.20;;;8.60;99.90;;;;;;5070749;28;20021;-87
2021/05/14 02:40:17;;;;;;;2.55;1.27;;;8.50;99.90;;;;;;5086011;28;20036;-86
2021/05/14 02:42:43;;;;;;;0.10;0.10;;;8.50;99.90;;;;;;5081286;28;20032;-86
2021/05/14 02:45:09;;;;;;;3.80;1.55;;;8.60;99.90;;;;;;5086248;28;20031;-87
2021/05/14 02:47:35;;;;;;;0.10;0.10;;;8.50;99.90;;;;;;5077577;28;20029;-87
2021/05/14 02:50:01;;;;;;;0.13;0.13;;;8.50;99.90;;;;;;5079238;28;20036;-87
2021/05/14 02:52:27;;;;;;;0.00;0.00;;;8.40;99.90;;;;;;5077944;28;20032;-88
2021/05/14 02:54:53;;;;;;;0.10;0.10;;;8.50;99.90;;;;;;5087864;28;20149;-88
2021/05/14 02:57:21;;;;;;;0.10;0.10;;;8.50;99.90;;;;;;5085437;28;20028;-88
2021/05/14 02:59:47;;;;;;;2.38;1.05;;;8.20;99.90;;;;;;5080223;28;20441;-88
2021/05/14 03:02:12;;;;;;;8.77;1.05;;;8.30;99.90;;;;;;5088499;28;20024;-89
2021/05/14 03:04:38;;;;;;;0.10;0.10;;;8.30;99.90;;;;;;5076055;28;20028;-89
2021/05/14 03:07:04;;;;;;;0.10;0.10;;;8.30;99.90;;;;;;5062844;28;20056;-89
2021/05/14 03:09:30;;;;;;;0.10;0.10;;;8.40;99.90;;;;;;5090425;28;20036;-89
2021/05/14 03:11:55;;;;;;;0.20;0.20;;;8.40;99.90;;;;;;5079954;28;20021;-89
2021/05/14 03:14:21;;;;;;;0.05;0.05;;;8.50;99.90;;;;;;5065793;28;20044;-89
2021/05/14 03:16:47;;;;;;;0.10;0.10;;;8.60;99.90;;;;;;5090145;28;20141;-88
2021/05/14 03:19:13;;;;;;;0.20;0.20;;;8.60;99.90;;;;;;5086539;28;20041;-87
2021/05/14 03:21:38;;;;;;;6.80;1.58;;;8.60;99.90;;;;;;5063127;28;20400;-86
2021/05/14 03:24:24;;;;;;;2.90;0.47;;;8.60;99.90;;;;;;5077918;28;20050;-87
2021/05/14 03:26:53;;;;;;;0.17;0.17;;;8.60;99.90;;;;;;5087839;28;20071;-87
2021/05/14 03:29:24;;;;;;;0.65;0.32;;;8.60;99.90;;;;;;5075190;28;20548;-86
2021/05/14 03:31:54;;;;;;;0.10;0.10;;;8.60;99.90;;;;;;5064361;28;20503;-86
2021/05/14 03:34:29;;;;;;;0.10;0.10;;;8.60;99.90;;;;;;5072168;28;20035;-87
2021/05/14 03:36:55;;;;;;;0.10;0.10;;;8.60;99.90;;;;;;5071450;28;20135;-86
2021/05/14 03:39:24;;;;;;;0.10;0.10;;;8.60;99.90;;;;;;5077215;28;20481;-87
2021/05/14 03:41:52;;;;;;;0.30;0.30;;;8.60;99.90;;;;;;5071985;28;20277;-88
2021/05/14 03:44:18;;;;;;;0.35;0.35;;;8.60;99.90;;;;;;5071964;28;20024;-87
2021/05/14 03:46:44;;;;;;;0.10;0.10;;;8.60;99.90;;;;;;5060506;28;20078;-87
2021/05/14 03:49:10;;;;;;;0.10;0.10;;;8.60;99.90;;;;;;5085449;28;20405;-85
2021/05/14 03:51:38;;;;;;;0.13;0.13;;;8.60;99.90;;;;;;5079374;28;20122;-85
2021/05/14 03:54:05;;;;;;;0.10;0.10;;;8.60;99.90;;;;;;5078479;28;20479;-86
2021/05/14 03:56:30;;;;;;;;;;;8.60;99.90;;;;;;5080641;28;20016;-87
2021/05/14 03:58:58;;;;;;;0.10;0.10;;;8.60;99.90;;;;;;5082016;28;20420;-87
2021/05/14 04:01:24;;;;;;;0.20;0.20;;;8.50;99.90;;;;;;5083065;28;20024;-87
2021/05/14 04:03:50;;;;;;;0.10;0.10;;;8.50;99.90;;;;;;5082260;28;20503;-89
2021/05/14 04:06:16;;;;;;;0.22;0.22;;;8.50;99.90;;;;;;5080342;28;20024;-88
2021/05/14 04:08:42;;;;;;;0.13;0.13;;;8.50;99.90;;;;;;5084532;28;20041;-87
2021/05/14 04:16:41;;;;;;;0.00;0.00;;;8.50;99.90;;;;;;5038011;28;20571;-89
2021/05/14 04:19:07;;;;;;;0.38;0.30;;;8.40;99.90;;;;;;5035292;28;20037;-88
2021/05/14 04:21:33;;;;;;;0.10;0.10;;;8.40;99.90;;;;;;5024762;28;20029;-88
2021/05/14 04:24:21;;;;;;;0.00;0.00;;;8.40;99.90;;;;;;5025553;28;20028;-88
2021/05/14 04:26:58;;;;;;;0.10;0.10;;;8.40;99.90;;;;;;5023731;28;20032;-88
2021/05/14 04:29:24;;;;;;;2.72;1.33;;;8.40;99.90;;;;;;5014390;28;20045;-89
2021/05/14 04:31:50;;;;;;;0.32;0.32;;;8.50;99.90;;;;;;5011015;28;20552;-88
2021/05/14 04:34:19;;;;;;;0.20;0.20;;;8.50;99.90;;;;;;5026031;28;20045;-88
2021/05/14 04:36:45;;;;;;;0.20;0.20;;;8.40;99.90;;;;;;5034599;28;20033;-89
2021/05/14 04:39:11;;;;;;;6.88;1.45;;;8.50;99.90;;;;;;5022384;28;20495;-88
2021/05/14 04:41:38;;;;;;;1.17;0.70;;;8.50;99.90;;;;;;5017048;28;20028;-88
2021/05/14 04:44:04;;;;;;;0.00;0.00;;;8.40;99.90;;;;;;5032002;28;20148;-92
2021/05/14 04:46:30;;;;;;;0.20;0.20;;;8.40;99.90;;;;;;5016182;28;20070;-88
2021/05/14 04:48:56;;;;;;;2.50;0.75;;;8.40;99.90;;;;;;5038763;28;20116;-88
2021/05/14 04:51:24;;;;;;;0.30;0.30;;;8.50;99.90;;;;;;5060565;28;20643;-87
2021/05/14 04:53:50;;;;;;;0.43;0.43;;;8.50;99.90;;;;;;5080755;28;20027;-86
2021/05/14 04:56:16;;;;;;;0.10;0.10;;;8.50;99.90;;;;;;5074000;28;20063;-88
2021/05/14 04:58:42;;;;;;;0.85;0.82;;;8.50;99.90;;;;;;5076976;28;20028;-87
2021/05/14 05:01:09;;;;;;;0.20;0.20;;;8.50;99.90;;;;;;5068082;28;20036;-86
2021/05/14 05:03:35;;;;;;;0.40;0.40;;;8.40;99.90;;;;;;5075169;28;20488;-85
2021/05/14 05:06:05;;;;;;;2.53;1.85;;;8.40;99.90;;;;;;5082964;28;20504;-87
2021/05/14 05:08:31;;;;;;;0.20;0.20;;;8.50;99.90;;;;;;5087429;28;20081;-87
2021/05/14 05:10:57;;;;;;;0.63;0.63;;;8.40;99.90;;;;;;5083720;28;20428;-85
2021/05/14 05:13:24;;;;;;;1.93;1.03;;;8.50;99.90;;;;;;5076596;28;20048;-86
2021/05/14 05:15:49;;;;;;;0.20;0.20;;;8.50;99.90;;;;;;5073439;28;20069;-88
2021/05/14 05:18:16;;;;;;;0.22;0.22;;;8.50;99.90;;;;;;5059225;28;20048;-88
2021/05/14 05:20:54;;;;;;;0.05;0.05;;;8.60;99.90;;;;;;5076385;28;20551;-89
2021/05/14 05:23:24;;;;;;;0.75;0.75;;;8.50;99.90;;;;;;5075422;28;20568;-87
2021/05/14 05:25:54;;;;;;;0.35;0.35;;;8.50;99.90;;;;;;5076873;28;20020;-86
2021/05/14 05:28:30;;;;;;;1.40;1.30;;;8.60;99.90;;;;;;5075151;28;20037;-87
2021/05/14 05:30:57;;;;;;;1.38;1.27;;;8.70;99.90;;;;;;5074803;28;20028;-86
2021/05/14 05:33:24;;;;;;;0.22;0.22;;;8.80;99.90;;;;;;5080315;28;20521;-87
2021/05/14 05:35:50;;;;;;;0.73;0.73;;;8.80;99.90;;;;;;5068318;28;20029;-89
2021/05/14 05:38:23;;;;;;;0.98;0.82;;;8.80;99.90;;;;;;5075598;28;20035;-89
2021/05/14 05:40:50;;;;;;;1.30;0.88;;;8.80;99.90;;;;;;5077416;28;20090;-87
2021/05/14 05:43:16;;;;;;;;;;;9.00;99.90;;;;;;5057892;28;20472;-89
2021/05/14 05:45:44;;;;;;;0.10;0.10;;;9.10;99.90;;;;;;5079929;28;20014;-90
2021/05/14 05:48:10;;;;;;;0.40;0.40;;;9.20;99.90;;;;;;5088177;28;20051;-90
2021/05/14 05:50:41;;;;;;;0.38;0.35;;;9.40;99.90;;;;;;5088616;28;20035;-88
2021/05/14 05:53:08;;;;;;;0.60;0.60;;;9.80;99.90;;;;;;5088699;28;20028;-88
2021/05/14 05:55:36;;;;;;;1.42;1.35;;;10.20;99.90;;;;;;5084846;28;20028;-89
2021/05/14 05:58:09;;;;;;;1.20;0.98;;;10.70;99.90;;;;;;5063876;28;20027;-89
2021/05/14 06:00:37;;;;;;;0.10;0.10;;;11.20;99.90;;;;;;5073913;28;20033;-89
2021/05/14 06:03:10;;;;;;;0.20;0.20;;;10.80;99.90;;;;;;5068551;28;20108;-88
2021/05/14 06:05:38;;;;;;;0.10;0.10;;;11.00;99.90;;;;;;5075867;28;20061;-89
2021/05/14 06:08:05;;;;;;;0.30;0.30;;;10.90;99.90;;;;;;5077608;28;20020;-89
2021/05/14 06:10:32;;;;;;;0.10;0.10;;;10.70;99.90;;;;;;5070055;28;20089;-89
2021/05/14 06:12:59;;;;;;;0.15;0.15;;;10.20;99.90;;;;;;5076148;28;20065;-88
2021/05/14 06:15:25;;;;;;;0.47;0.47;;;10.20;99.90;;;;;;5071224;28;20024;-88
2021/05/14 06:17:52;;;;;;;0.32;0.32;;;10.20;99.90;;;;;;5070375;28;20016;-88
2021/05/14 06:20:21;;;;;;;0.10;0.10;;;10.40;99.90;;;;;;5079350;28;20025;-88
2021/05/14 06:22:48;;;;;;;0.30;0.30;;;9.90;99.90;;;;;;5086668;28;20051;-88
2021/05/14 06:25:15;;;;;;;0.32;0.17;;;9.70;99.90;;;;;;5075673;28;20020;-87
2021/05/14 06:27:42;;;;;;;3.40;2.33;;;9.40;99.90;;;;;;5073448;28;20021;-88
2021/05/14 06:30:15;;;;;;;0.75;0.75;;;9.50;99.90;;;;;;5079449;28;20035;-88
2021/05/14 06:32:45;;;;;;;1.58;1.42;;;9.40;99.90;;;;;;5056849;28;20037;-88
2021/05/14 06:35:14;;;;;;;2.08;1.67;;;9.40;99.90;;;;;;5055700;28;20408;-89
2021/05/14 06:37:41;;;;;;;1.63;1.25;;;9.60;99.90;;;;;;5069773;28;20027;-89
2021/05/14 06:40:12;;;;;;;0.32;0.32;;;9.90;99.90;;;;;;5075009;28;20040;-88
2021/05/14 06:42:41;;;;;;;0.77;0.77;;;9.80;99.90;;;;;;5068068;28;20099;-90
2021/05/14 06:45:08;;;;;;;1.23;0.80;;;9.60;99.90;;;;;;5071630;28;20089;-87
2021/05/14 06:47:35;;;;;;;0.10;0.10;;;9.30;99.90;;;;;;5055970;28;20593;-88
2021/05/14 06:50:06;;;;;;;0.22;0.22;;;9.30;99.90;;;;;;5057230;28;20715;-88
2021/05/14 06:52:33;;;;;;;0.28;0.28;;;9.20;99.90;;;;;;5059926;28;20029;-88
2021/05/14 06:55:02;;;;;;;0.50;0.50;;;9.20;99.90;;;;;;5057743;28;20029;-88
2021/05/14 06:57:28;;;;;;;0.10;0.10;;;9.30;99.90;;;;;;5068425;28;20025;-88
2021/05/14 06:59:54;;;;;;;1.20;0.90;;;9.80;99.90;;;;;;5058640;28;20032;-91
2021/05/14 07:02:20;;;;;;;0.10;0.10;;;10.90;99.90;;;;;;5059150;28;20531;-90
2021/05/14 07:04:45;;;;;;;0.85;0.52;;;11.40;99.90;;;;;;5059716;28;20025;-89
2021/05/14 07:07:12;;;;;;;0.33;0.33;;;11.70;99.90;;;;;;5058768;28;20495;-90
2021/05/14 07:09:38;;;;;;;0.10;0.10;;;15.10;99.90;;;;;;5053303;28;20025;-90
2021/05/14 07:12:04;;;;;;;0.10;0.10;;;13.80;99.90;;;;;;5061267;28;20099;-89
2021/05/14 07:14:31;;;;;;;;;;;11.80;99.90;;;;;;5064593;28;20513;-89
2021/05/14 07:16:56;;;;;;;1.03;0.93;;;15.30;99.90;;;;;;5064633;28;20015;-90
2021/05/14 07:19:22;;;;;;;0.03;0.03;;;17.60;99.90;;;;;;5067333;28;20029;-90
2021/05/14 07:21:48;;;;;;;0.00;0.00;;;19.30;99.90;;;;;;5054272;28;20386;-90
2021/05/14 07:24:15;;;;;;;0.10;0.10;;;19.90;99.90;;;;;;5066529;28;20074;-90
2021/05/14 07:26:42;;;;;;;0.05;0.05;;;19.20;99.90;;;;;;5056487;28;20031;-90
2021/05/14 07:29:08;;;;;;;0.22;0.22;;;20.80;99.90;;;;;;5073143;28;20039;-91
2021/05/14 07:31:34;;;;;;;0.07;0.07;;;17.10;99.90;;;;;;5055617;28;20025;-91
2021/05/14 07:34:00;;;;;;;0.00;0.00;;;18.60;99.90;;;;;;5056456;28;20021;-89
2021/05/14 07:36:26;;;;;;;0.33;0.33;;;19.50;99.90;;;;;;5091962;28;20084;-89
2021/05/14 07:38:53;;;;;;;0.22;0.10;;;15.50;99.90;;;;;;5058189;28;20711;-88
2021/05/14 07:41:20;;;;;;;0.32;0.32;;;12.90;99.90;;;;;;5068610;28;20064;-89
2021/05/14 07:43:46;;;;;;;0.20;0.20;;;13.40;99.90;;;;;;5055760;28;20029;-88
2021/05/14 07:46:13;;;;;;;0.30;0.30;;;16.90;99.90;;;;;;5061251;28;20456;-88
2021/05/14 07:48:39;;;;;;;0.10;0.10;;;14.50;99.90;;;;;;5067274;28;20055;-88
2021/05/14 07:51:05;;;;;;;0.75;0.75;;;13.00;99.90;;;;;;5073322;28;20032;-88
2021/05/14 07:53:30;;;;;;;0.10;0.10;;;12.70;99.90;;;;;;5058201;28;20032;-87
2021/05/14 07:55:57;;;;;;;0.03;0.03;;;12.00;99.90;;;;;;5062159;28;20035;-88
2021/05/14 07:58:23;;;;;;;0.10;0.10;;;12.00;99.90;;;;;;5071411;28;20029;-88
2021/05/14 08:00:50;;;;;;;0.00;0.00;;;12.00;99.90;;;;;;5067385;28;20031;-89
2021/05/14 08:03:17;;;;;;;0.70;0.43;;;13.20;99.90;;;;;;5070189;28;20519;-89
2021/05/14 08:05:46;;;;;;;0.00;0.00;;;17.20;99.90;;;;;;5070281;28;20396;-89
2021/05/14 08:08:15;;;;;;;0.70;0.60;;;20.40;99.90;;;;;;5069199;28;20770;-89
2021/05/14 08:10:41;;;;;;;0.28;0.20;;;18.00;99.90;;;;;;5069136;28;20032;-88
2021/05/14 08:13:07;;;;;;;0.00;0.00;;;18.70;99.90;;;;;;5070604;28;20068;-89
2021/05/14 08:15:33;;;;;;;0.00;0.00;;;18.10;99.90;;;;;;5069115;28;20036;-89
2021/05/14 08:17:58;;;;;;;0.43;0.20;;;20.70;99.90;;;;;;5071160;28;20400;-89
2021/05/14 08:20:25;;;;;;;0.00;0.00;;;22.40;99.90;;;;;;5069784;28;20039;-89
2021/05/14 08:22:51;;;;;;;0.00;0.00;;;18.20;99.90;;;;;;5071192;28;20031;-90
2021/05/14 08:25:18;;;;;;;0.10;0.10;;;19.40;99.90;;;;;;5071519;28;20557;-89
2021/05/14 08:27:44;;;;;;;0.00;0.00;;;19.40;99.90;;;;;;5069566;28;20020;-89
2021/05/14 08:30:12;;;;;;;0.00;0.00;;;21.30;99.90;;;;;;5071026;28;20033;-89
2021/05/14 08:32:38;;;;;;;0.00;0.00;;;20.40;99.90;;;;;;5071728;28;20029;-89
2021/05/14 08:35:07;;;;;;;0.00;0.00;;;19.00;99.90;;;;;;5071568;28;20032;-88
2021/05/14 08:37:34;;;;;;;0.95;0.25;;;19.50;99.90;;;;;;5071331;28;20036;-89
2021/05/14 08:39:59;;;;;;;;;;;24.50;99.90;;;;;;5071388;28;20031;-89
2021/05/14 08:42:25;;;;;;;0.00;0.00;;;23.70;99.90;;;;;;5070635;28;19908;-89
2021/05/14 08:44:51;;;;;;;0.10;0.10;;;19.70;99.90;;;;;;5070409;28;20025;-88
2021/05/14 08:47:17;;;;;;;0.00;0.00;;;15.30;99.90;;;;;;5070536;28;20096;-88
2021/05/14 08:49:46;;;;;;;0.00;0.00;;;14.80;99.90;;;;;;5070326;28;20020;-88
2021/05/14 08:52:15;;;;;;;0.00;0.00;;;14.30;99.90;;;;;;5070214;28;20036;-88
2021/05/14 08:54:44;;;;;;;0.17;0.17;;;14.50;99.90;;;;;;5070082;28;20021;-89
2021/05/14 08:57:10;;;;;;;1.23;0.28;;;20.60;99.90;;;;;;5070360;28;20027;-89
2021/05/14 08:59:37;;;;;;;1.45;0.85;;;22.70;99.90;;;;;;5071136;28;20503;-89
2021/05/14 09:02:02;;;;;;;;;;;24.70;99.90;;;;;;5069617;28;20385;-89
2021/05/14 09:04:33;;;;;;;0.00;0.00;;;24.10;99.90;;;;;;5069095;28;20037;-89
2021/05/14 09:07:00;;;;;;;0.43;0.43;;;22.90;99.90;;;;;;5070286;28;20051;-89
2021/05/14 09:09:26;;;;;;;0.13;0.10;;;18.10;99.90;;;;;;5070688;28;20029;-89
2021/05/14 09:11:52;;;;;;;0.40;0.38;;;22.10;99.90;;;;;;5069150;28;20029;-88
2021/05/14 09:14:45;;;;;;;0.43;0.40;;;18.70;99.90;;;;;;5070265;28;20302;-88
2021/05/14 09:17:14;;;;;;;0.90;0.47;;;14.90;99.90;;;;;;5069755;28;20043;-88
2021/05/14 09:19:48;;;;;;;0.00;0.00;;;14.00;99.90;;;;;;5069556;28;20032;-88
2021/05/14 09:22:13;;;;;;;0.30;0.30;;;16.90;99.90;;;;;;5069622;28;20558;-88
2021/05/14 09:24:43;;;;;;;0.10;0.10;;;22.50;99.90;;;;;;5069928;28;20025;-89
2021/05/14 09:27:18;;;;;;;0.00;0.00;;;22.90;99.90;;;;;;5070409;28;20035;-89
2021/05/14 09:29:45;;;;;;;0.00;0.00;;;19.50;99.90;;;;;;5068791;28;20073;-89
2021/05/14 09:32:40;;;;;;;;;;;19.40;99.90;;;;;;5069207;28;20056;-89
2021/05/14 09:35:08;;;;;;;0.20;0.20;;;23.20;99.90;;;;;;5063772;28;19940;-89
2021/05/14 09:37:46;;;;;;;0.00;0.00;;;26.50;99.90;;;;;;5069874;28;20024;-89
2021/05/14 09:40:17;;;;;;;0.20;0.20;;;24.10;99.90;;;;;;5069646;28;20392;-89
2021/05/14 09:42:44;;;;;;;0.00;0.00;;;20.20;99.90;;;;;;5070110;28;20020;-89
2021/05/14 09:45:14;;;;;;;0.73;0.70;;;19.10;99.90;;;;;;5069649;28;20029;-89
2021/05/14 09:47:40;;;;;;;0.13;0.13;;;17.10;99.90;;;;;;5069905;28;20104;-88
2021/05/14 09:50:33;;;;;;;0.10;0.10;;;16.40;99.90;;;;;;5069470;28;20074;-88
2021/05/14 09:53:14;;;;;;;0.10;0.10;;;16.70;99.90;;;;;;5065278;28;20094;-89
2021/05/14 09:55:49;;;;;;;0.10;0.10;;;16.30;99.90;;;;;;5072985;28;20033;-88
2021/05/14 09:58:22;;;;;;;0.10;0.10;;;15.80;99.90;;;;;;5072783;28;20035;-88
2021/05/14 10:00:48;;;;;;;0.10;0.10;;;15.40;99.90;;;;;;5072971;28;20059;-88
2021/05/14 10:03:18;;;;;;;0.40;0.40;;;14.90;99.90;;;;;;5072572;28;20025;-88
2021/05/14 10:05:49;;;;;;;0.20;0.20;;;14.70;99.90;;;;;;5072499;28;20396;-88
2021/05/14 10:08:19;;;;;;;0.10;0.10;;;14.60;99.90;;;;;;5072450;28;20112;-88
2021/05/14 10:10:45;;;;;;;0.08;0.08;;;14.80;99.90;;;;;;5072451;28;20060;-88
2021/05/14 10:13:11;;;;;;;0.10;0.10;;;15.00;99.90;;;;;;5071864;28;20045;-88
2021/05/14 10:15:37;;;;;;;0.00;0.00;;;14.70;99.90;;;;;;5071055;28;20104;-88
2021/05/14 10:18:08;;;;;;;0.40;0.40;;;15.00;99.90;;;;;;5072400;28;20029;-88
2021/05/14 10:20:37;;;;;;;0.35;0.20;;;14.70;99.90;;;;;;5072096;28;20457;-88
2021/05/14 10:23:04;;;;;;;0.40;0.40;;;14.90;99.90;;;;;;5067781;28;20062;-88
2021/05/14 10:25:44;;;;;;;1.45;0.20;;;18.60;99.90;;;;;;5059989;28;20025;-86
2021/05/14 10:28:14;;;;;;;0.08;0.08;;;22.20;99.90;;;;;;5067440;28;20037;-86
2021/05/14 10:31:17;;;;;;;0.70;0.45;;;18.20;99.90;;;;;;5059545;28;20587;-88
2021/05/14 10:33:59;;;;;;;0.00;0.00;;;20.70;99.90;;;;;;5067300;28;20045;-88
2021/05/14 10:36:32;;;;;;;0.00;0.00;;;24.20;99.40;;;;;;5069096;28;20381;-89
2021/05/14 10:39:02;;;;;;;0.10;0.10;;;24.20;99.90;;;;;;5062150;28;20063;-82
2021/05/14 10:41:28;;;;;;;0.00;0.00;;;21.70;99.90;;;;;;5061416;28;21028;-82
2021/05/14 10:44:24;;;;;;;2.60;0.80;;;19.60;99.90;;;;;;5066517;28;20025;-82
2021/05/14 10:46:50;;;;;;;0.00;0.00;;;17.80;99.90;;;;;;5079085;28;20041;-82
2021/05/14 10:49:16;;;;;;;0.17;0.17;;;15.80;99.90;;;;;;5075318;28;20013;-82
2021/05/14 10:51:51;;;;;;;0.10;0.10;;;15.00;99.90;;;;;;5064264;28;20015;-82
2021/05/14 10:54:41;;;;;;;0.10;0.10;;;17.50;99.90;;;;;;5063850;28;20476;-82
2021/05/14 10:57:13;;;;;;;0.10;0.10;;;17.10;99.90;;;;;;5064932;28;20687;-81
2021/05/14 10:59:41;;;;;;;0.40;0.40;;;18.90;99.90;;;;;;5054817;28;20607;-81
2021/05/14 11:02:32;;;;;;;0.10;0.10;;;21.80;99.90;;;;;;5065996;28;20040;-81
2021/05/14 11:05:01;;;;;;;0.00;0.00;;;23.10;99.90;;;;;;5064460;28;20173;-81
2021/05/14 11:07:41;;;;;;;0.20;0.20;;;23.00;97.10;;;;;;5044927;28;20635;-81
2021/05/14 11:10:13;;;;;;;0.05;0.05;;;22.70;99.30;;;;;;5073364;28;20099;-81
2021/05/14 11:12:40;;;;;;;0.30;0.30;;;20.70;99.80;;;;;;5054414;28;20045;-81
2021/05/14 11:15:30;;;;;;;0.00;0.00;;;23.20;98.60;;;;;;5056260;28;20050;-81
2021/05/14 11:18:25;;;;;;;0.45;0.20;;;20.70;99.90;;;;;;5057747;28;20454;-82
2021/05/14 11:20:55;;;;;;;0.10;0.10;;;19.20;99.90;;;;;;5054688;28;20139;-81
2021/05/14 11:23:39;;;;;;;0.28;0.10;;;22.70;99.90;;;;;;5061753;28;20440;-82
2021/05/14 11:26:16;;;;;;;0.05;0.05;;;23.50;99.50;;;;;;5060062;28;20106;-82
2021/05/14 11:28:45;;;;;;;0.00;0.00;;;21.30;99.30;;;;;;5071279;28;20595;-82
2021/05/14 11:31:23;;;;;;;0.20;0.20;;;18.40;99.90;;;;;;5055390;28;20024;-82
2021/05/14 11:33:57;;;;;;;0.00;0.00;;;17.00;99.90;;;;;;5059564;28;20421;-82
2021/05/14 11:36:25;;;;;;;0.10;0.10;;;17.20;99.90;;;;;;5062044;28;20027;-82
2021/05/14 11:38:57;;;;;;;0.10;0.10;;;16.70;99.90;;;;;;5057479;28;20029;-82
2021/05/14 11:41:27;;;;;;;0.00;0.00;;;17.30;99.90;;;;;;5053146;28;20136;-82
2021/05/14 11:43:55;;;;;;;2.28;0.95;;;17.10;99.90;;;;;;5058936;28;20021;-82
2021/05/14 11:46:24;;;;;;;0.40;0.40;;;16.80;99.90;;;;;;5056650;28;20055;-82
2021/05/14 11:48:50;;;;;;;0.10;0.10;;;16.80;99.90;;;;;;5067477;28;20047;-82
2021/05/14 11:51:16;;;;;;;0.33;0.33;;;16.70;99.90;;;;;;5059676;28;20055;-82
2021/05/14 11:53:42;;;;;;;0.00;0.00;;;16.90;99.90;;;;;;5061781;28;20130;-82
2021/05/14 11:56:08;;;;;;;0.00;0.00;;;17.00;99.90;;;;;;5063131;28;20488;-82
2021/05/14 11:58:34;;;;;;;0.00;0.00;;;17.10;99.90;;;;;;5061478;28;20043;-82
2021/05/14 12:01:03;;;;;;;0.03;0.03;;;18.10;99.90;;;;;;5066229;28;20028;-81
2021/05/14 12:03:29;;;;;;;0.00;0.00;;;17.20;99.90;;;;;;5071034;28;20070;-82
2021/05/14 12:06:03;;;;;;;3.43;0.40;;;17.30;99.90;;;;;;5067205;28;20029;-82
2021/05/14 12:08:30;;;;;;;0.00;0.00;;;16.80;99.90;;;;;;5067465;28;20020;-82
2021/05/14 12:11:10;;;;;;;0.00;0.00;;;16.90;99.90;;;;;;5065678;28;20439;-82
2021/05/14 12:13:47;;;;;;;0.28;0.20;;;18.00;99.90;;;;;;5061993;28;20044;-82
2021/05/14 12:16:16;;;;;;;0.20;0.17;;;17.80;99.90;;;;;;5063506;28;20042;-82
2021/05/14 12:18:47;;;;;;;0.00;0.00;;;18.60;99.90;;;;;;5078765;28;20032;-82
2021/05/14 12:21:39;;;;;;;0.00;0.00;;;17.80;99.90;;;;;;5060796;28;20051;-82
2021/05/14 12:24:17;;;;;;;0.00;0.00;;;17.70;99.90;;;;;;5057285;28;20251;-82
2021/05/14 12:26:43;;;;;;;0.03;0.03;;;17.50;99.90;;;;;;5058976;28;20032;-82
2021/05/14 12:29:24;;;;;;;0.90;0.75;;;16.90;99.90;;;;;;5062905;28;20052;-82
2021/05/14 12:31:57;;;;;;;0.00;0.00;;;16.80;99.90;;;;;;5065672;28;20088;-82
2021/05/14 12:34:28;;;;;;;0.00;0.00;;;16.90;99.90;;;;;;5062829;28;20027;-81
2021/05/14 12:36:58;;;;;;;0.10;0.10;;;16.90;99.90;;;;;;5055613;28;20110;-82
2021/05/14 12:39:25;;;;;;;0.08;0.08;;;16.90;99.90;;;;;;5064107;28;20046;-82
2021/05/14 12:42:12;;;;;;;0.00;0.00;;;16.30;99.90;;;;;;5062372;28;20035;-82
2021/05/14 12:44:38;;;;;;;0.10;0.10;;;16.20;99.90;;;;;;5053824;28;20142;-82
2021/05/14 12:47:05;;;;;;;;;;;16.20;99.90;;;;;;5058382;28;20033;-82
2021/05/14 12:49:34;;;;;;;0.00;0.00;;;16.30;99.90;;;;;;5061957;28;19923;-82
2021/05/14 12:52:06;;;;;;;0.00;0.00;;;14.90;99.90;;;;;;5059486;28;20028;-82
2021/05/14 12:54:36;;;;;;;0.00;0.00;;;13.90;1.00;;;;;;5055253;28;20041;-82
2021/05/14 12:57:02;;;;;;;0.10;0.10;;;14.20;99.90;;;;;;5064309;28;20028;-81
2021/05/14 12:59:28;;;;;;;0.00;0.00;;;15.30;99.90;;;;;;5059172;28;20033;-82
2021/05/14 13:01:56;;;;;;;0.00;0.00;;;15.70;99.90;;;;;;5065582;28;20029;-81
2021/05/14 13:04:33;;;;;;;0.00;0.00;;;16.80;99.90;;;;;;5067559;28;20024;-82
2021/05/14 13:07:04;;;;;;;0.10;0.10;;;17.30;99.90;;;;;;5061810;28;20500;-82
2021/05/14 13:09:32;;;;;;;0.00;0.00;;;17.00;99.90;;;;;;5054938;28;20069;-81